Terminal Aerodrome Forecast
Issued by NWS Shreveport, LA

Home | Current Version | Previous Version | Text Only | Print | Product List | Glossary On
Versions: 1 2 3 4 5 6 7 8 9 10 11 12 13 14 15 16 17 18
000
FTUS44 KSHV 011200 AAA
TAFSHV
TAF AMD
KSHV 011233Z 0113/0212 17010KT P6SM VCSH OVC009
     FM011500 20012G20KT 5SM -RA BR VCTS OVC015CB
     FM012200 31010KT 5SM -RA BR OVC015
     FM020000 32013G22KT P6SM BKN030
     FM020300 33013G22KT P6SM SKC=

USA.gov is the U.S. government's official web portal to all federal, state and local government web resources and services.